Time;durP1;ratioP1;P1;durP2;ratioP2;P2;SDS_P1;SDS_P2;PMS_P1;PMS_P2;Temp;Humidity;BMP_temperature;BMP_pressure;BME280_temperature;BME280_humidity;BME280_pressure;Samples;Min_cycle;Max_cycle;Signal;HPM_P1;HPM_P2
2023/06/04 00:01:58;;;;;;;2.83;1.60;;;;;;;-143.48;54.56;118439.88;5036418;28;20045;-75
2023/06/04 00:04:25;;;;;;;5.35;1.90;;;;;;;-143.48;55.10;118439.88;5036516;28;20384;-74
2023/06/04 00:06:50;;;;;;;7.43;2.17;;;;;;;-143.48;55.27;118439.88;5036443;28;20036;-74
2023/06/04 00:09:16;;;;;;;4.68;1.80;;;;;;;-143.48;55.28;118439.88;5018525;28;20469;-74
2023/06/04 00:11:41;;;;;;;4.05;1.75;;;;;;;-143.48;56.19;118439.88;5018576;28;20036;-74
2023/06/04 00:14:06;;;;;;;3.90;1.52;;;;;;;-143.48;56.34;118439.88;5018883;28;20087;-74
2023/06/04 00:16:32;;;;;;;3.22;1.73;;;;;;;-143.48;55.95;118439.88;5018638;28;20021;-74
2023/06/04 00:18:57;;;;;;;4.55;1.52;;;;;;;-143.48;55.41;118439.88;5036208;28;20104;-74
2023/06/04 00:21:22;;;;;;;5.22;1.80;;;;;;;-143.48;54.79;118439.88;5018449;28;20025;-74
2023/06/04 00:23:48;;;;;;;4.13;1.80;;;;;;;-143.48;55.25;118439.88;5036174;28;20599;-74
2023/06/04 00:26:13;;;;;;;5.78;1.77;;;;;;;-143.48;55.39;118439.88;5018361;28;20031;-74
2023/06/04 00:28:38;;;;;;;2.92;1.80;;;;;;;-143.48;55.89;118439.88;5035857;28;20029;-74
2023/06/04 00:31:06;;;;;;;2.80;1.60;;;;;;;-143.48;55.30;118439.88;5036016;28;20036;-73
2023/06/04 00:33:32;;;;;;;5.65;1.88;;;;;;;-143.48;55.22;118439.88;5035936;28;20084;-73
2023/06/04 00:35:57;;;;;;;5.05;1.70;;;;;;;-143.48;55.45;118439.88;5018170;28;20029;-74
2023/06/04 00:38:23;;;;;;;6.63;1.98;;;;;;;-143.48;55.54;118439.88;5018278;28;20024;-74
2023/06/04 00:40:48;;;;;;;5.13;1.80;;;;;;;-143.48;56.02;118439.88;5018059;28;20025;-75
2023/06/04 00:43:13;;;;;;;2.53;1.50;;;;;;;-143.48;56.30;118439.88;5018128;28;20075;-74
2023/06/04 00:45:39;;;;;;;4.72;1.50;;;;;;;-143.48;56.65;118439.88;5035802;28;20022;-74
2023/06/04 00:48:06;;;;;;;3.80;1.60;;;;;;;-143.48;56.19;118439.88;5018064;28;20392;-75
2023/06/04 00:50:33;;;;;;;2.22;1.40;;;;;;;-143.48;56.67;118439.88;5035655;28;20030;-75
2023/06/04 00:52:58;;;;;;;6.50;1.70;;;;;;;-143.48;56.38;118439.88;5035602;28;20022;-75
2023/06/04 00:55:24;;;;;;;5.72;1.30;;;;;;;-143.48;56.33;118439.88;5017098;28;20075;-74
2023/06/04 00:57:50;;;;;;;6.35;1.70;;;;;;;-143.48;56.25;118439.88;5035418;28;20373;-75
2023/06/04 01:00:16;;;;;;;3.08;1.50;;;;;;;-143.48;56.49;118439.88;5035455;28;20053;-75
2023/06/04 01:02:50;;;;;;;3.13;1.67;;;;;;;-143.48;56.86;118439.88;5034136;28;20052;-75
2023/06/04 01:05:29;;;;;;;2.55;1.40;;;;;;;-143.48;56.17;118439.88;5035489;28;20036;-75
2023/06/04 01:07:55;;;;;;;3.65;1.48;;;;;;;-143.48;56.65;118439.88;5017508;28;20032;-75
2023/06/04 01:10:22;;;;;;;2.42;1.50;;;;;;;-143.48;56.67;118439.88;5017527;28;20124;-73
2023/06/04 01:12:47;;;;;;;3.45;1.90;;;;;;;-143.48;56.78;118439.88;5017485;28;20465;-74
2023/06/04 01:15:12;;;;;;;3.15;1.55;;;;;;;-143.48;57.08;118439.88;5017469;28;20017;-74
2023/06/04 01:17:43;;;;;;;3.55;1.70;;;;;;;-143.48;56.01;118439.88;5017416;28;20492;-75
2023/06/04 01:20:27;;;;;;;2.70;1.58;;;;;;;-143.48;56.04;118439.88;5035068;28;20032;-74
2023/06/04 01:23:01;;;;;;;2.83;1.48;;;;;;;-143.48;55.54;118439.88;5035015;28;20018;-74
2023/06/04 01:25:40;;;;;;;2.83;1.55;;;;;;;-143.48;55.31;118439.88;5017213;28;20029;-74
2023/06/04 01:28:07;;;;;;;2.60;1.50;;;;;;;-143.48;55.76;118439.88;5035032;28;20029;-75
2023/06/04 01:30:35;;;;;;;2.95;1.48;;;;;;;-143.48;55.07;118439.88;5017252;28;20393;-75
2023/06/04 01:33:01;;;;;;;5.60;1.30;;;;;;;-143.48;55.33;118439.88;5034934;28;20029;-75
2023/06/04 01:35:28;;;;;;;3.10;1.33;;;;;;;-143.48;54.77;118439.88;5034747;28;20048;-75
2023/06/04 01:37:54;;;;;;;7.80;1.50;;;;;;;-143.48;54.55;118439.88;5034763;28;20358;-74
2023/06/04 01:40:20;;;;;;;6.03;1.60;;;;;;;-143.48;54.35;118439.88;5034760;28;20030;-75
2023/06/04 01:42:45;;;;;;;2.70;1.40;;;;;;;-143.48;54.97;118439.88;5034731;28;20076;-76
2023/06/04 01:45:10;;;;;;;5.47;1.70;;;;;;;-143.48;54.66;118439.88;5016813;28;20021;-75
2023/06/04 01:47:36;;;;;;;4.53;1.60;;;;;;;-143.48;54.71;118439.88;5034606;28;20025;-75
2023/06/04 01:50:09;;;;;;;7.50;1.52;;;;;;;-143.48;54.99;118439.88;5034588;28;20022;-75
2023/06/04 01:52:36;;;;;;;3.90;1.73;;;;;;;-143.48;55.06;118439.88;5034553;28;20384;-75
2023/06/04 01:55:01;;;;;;;2.72;1.48;;;;;;;-143.48;53.77;118439.88;5034367;28;20024;-75
2023/06/04 01:57:27;;;;;;;6.18;1.50;;;;;;;-143.48;54.22;118439.88;5034375;28;20108;-75
2023/06/04 01:59:52;;;;;;;2.83;1.48;;;;;;;-143.48;54.54;118439.88;5016340;28;20027;-75
2023/06/04 02:02:18;;;;;;;4.63;1.60;;;;;;;-143.48;54.79;118439.88;5016480;28;20509;-75
2023/06/04 02:04:44;;;;;;;2.38;1.50;;;;;;;-143.48;54.19;118439.88;5034188;28;20034;-74
2023/06/04 02:07:11;;;;;;;2.30;1.55;;;;;;;-143.48;54.98;118439.88;5016570;28;20113;-75
2023/06/04 02:09:36;;;;;;;4.50;1.30;;;;;;;-143.48;54.95;118439.88;5016279;28;20033;-75
2023/06/04 02:12:02;;;;;;;2.30;1.30;;;;;;;-143.48;55.68;118439.88;5016364;28;20026;-75
2023/06/04 02:14:27;;;;;;;6.20;1.40;;;;;;;-143.48;54.71;118439.88;5015841;28;20436;-75
2023/06/04 02:16:53;;;;;;;2.33;1.50;;;;;;;-143.48;54.33;118439.88;5016230;28;20032;-75
2023/06/04 02:19:20;;;;;;;5.05;1.40;;;;;;;-143.48;54.47;118439.88;5016209;28;20017;-74
2023/06/04 02:21:45;;;;;;;5.13;1.50;;;;;;;-143.48;53.99;118439.88;5033889;28;20052;-75
2023/06/04 02:24:10;;;;;;;2.95;1.48;;;;;;;-143.48;53.90;118439.88;5033660;28;20033;-75
2023/06/04 02:26:35;;;;;;;6.40;1.40;;;;;;;-143.48;54.05;118439.88;5016045;28;20021;-74
2023/06/04 02:29:01;;;;;;;5.43;1.83;;;;;;;-143.48;54.60;118439.88;5015916;28;20459;-75
2023/06/04 02:31:27;;;;;;;3.42;1.50;;;;;;;-143.48;54.63;118439.88;5033756;28;20037;-75
2023/06/04 02:33:52;;;;;;;3.80;1.50;;;;;;;-143.48;53.91;118439.88;5015899;28;20032;-75
2023/06/04 02:36:18;;;;;;;3.55;1.30;;;;;;;-143.48;55.01;118439.88;5033724;28;20099;-74
2023/06/04 02:38:43;;;;;;;3.38;1.60;;;;;;;-143.48;54.59;118439.88;5033566;28;20017;-74
2023/06/04 02:41:09;;;;;;;4.28;1.50;;;;;;;-143.48;54.36;118439.88;5033609;28;20100;-75
2023/06/04 02:43:34;;;;;;;2.28;1.30;;;;;;;-143.48;54.42;118439.88;5033550;28;20040;-75
2023/06/04 02:45:59;;;;;;;3.75;1.50;;;;;;;-143.48;55.25;118439.88;5033619;28;20115;-75
2023/06/04 02:48:25;;;;;;;5.05;1.63;;;;;;;-143.48;55.15;118439.88;5015725;28;20472;-75
2023/06/04 02:50:50;;;;;;;3.25;1.60;;;;;;;-143.48;54.93;118439.88;5015722;28;20489;-75
2023/06/04 02:53:15;;;;;;;3.40;1.65;;;;;;;-143.48;54.74;118439.88;5015660;28;20428;-75
2023/06/04 02:55:41;;;;;;;5.35;1.60;;;;;;;-143.48;54.66;118439.88;5033208;28;20021;-75
2023/06/04 02:58:08;;;;;;;8.32;1.70;;;;;;;-143.48;54.63;118439.88;5015523;28;20072;-75
2023/06/04 03:00:34;;;;;;;4.70;1.70;;;;;;;-143.48;55.65;118439.88;5015276;28;20464;-75
2023/06/04 03:03:01;;;;;;;2.53;1.50;;;;;;;-143.48;58.20;118439.88;5033186;28;20029;-75
2023/06/04 03:05:27;;;;;;;2.97;1.67;;;;;;;-143.48;58.04;118439.88;5033165;28;20021;-75
2023/06/04 03:07:53;;;;;;;3.70;1.70;;;;;;;-143.48;58.15;118439.88;5033125;28;20492;-75
2023/06/04 03:10:18;;;;;;;3.45;1.40;;;;;;;-143.48;59.09;118439.88;5015336;28;20032;-75
2023/06/04 03:12:44;;;;;;;5.90;1.58;;;;;;;-143.48;61.24;118439.88;5033205;28;20464;-74
2023/06/04 03:15:10;;;;;;;6.00;1.67;;;;;;;-143.48;61.26;118439.88;5015357;28;20029;-75
2023/06/04 03:17:36;;;;;;;5.20;1.60;;;;;;;-143.48;61.58;118439.88;5033121;28;20029;-75
2023/06/04 03:20:04;;;;;;;3.97;1.90;;;;;;;-143.48;62.38;118439.88;5015336;28;20021;-74
2023/06/04 03:22:29;;;;;;;2.60;1.60;;;;;;;-143.48;62.25;118439.88;5033082;28;20396;-75
2023/06/04 03:24:55;;;;;;;4.07;1.65;;;;;;;-143.48;62.70;118439.88;5032569;28;20083;-75
2023/06/04 03:27:20;;;;;;;3.17;1.58;;;;;;;-143.48;62.87;118439.88;5014968;28;20026;-75
2023/06/04 03:29:45;;;;;;;4.82;2.17;;;;;;;-143.48;63.64;118439.88;5032967;28;20152;-75
2023/06/04 03:32:12;;;;;;;4.22;1.52;;;;;;;-143.48;63.88;118439.88;5032828;28;20021;-74
2023/06/04 03:34:37;;;;;;;3.58;1.70;;;;;;;-143.48;64.84;118439.88;5032905;28;20040;-75
2023/06/04 03:37:03;;;;;;;5.82;2.10;;;;;;;-143.48;64.73;118439.88;5032958;28;20029;-74
2023/06/04 03:39:28;;;;;;;3.42;1.77;;;;;;;-143.48;65.32;118439.88;5032821;28;20030;-75
2023/06/04 03:41:54;;;;;;;2.83;1.60;;;;;;;-143.48;65.33;118439.88;5032881;28;20034;-75
2023/06/04 03:44:21;;;;;;;2.95;1.70;;;;;;;-143.48;65.82;118439.88;5032926;28;20050;-75
2023/06/04 03:46:46;;;;;;;6.35;1.70;;;;;;;-143.48;66.14;118439.88;5015022;28;20051;-75
2023/06/04 03:49:13;;;;;;;3.63;1.85;;;;;;;-143.48;66.22;118439.88;5014925;28;20017;-75
2023/06/04 03:51:39;;;;;;;4.95;1.80;;;;;;;-143.48;66.96;118439.88;5015040;28;20036;-75
2023/06/04 03:54:04;;;;;;;4.25;1.95;;;;;;;-143.48;67.02;118439.88;5032793;28;20018;-75
2023/06/04 03:56:30;;;;;;;6.65;2.00;;;;;;;-143.48;67.21;118439.88;5015350;28;20036;-75
2023/06/04 03:58:56;;;;;;;6.18;2.20;;;;;;;-143.48;67.51;118439.88;5032685;28;20048;-75
2023/06/04 04:01:23;;;;;;;4.45;1.85;;;;;;;-143.48;67.47;118439.88;5032514;28;20159;-75
2023/06/04 04:03:49;;;;;;;4.45;1.88;;;;;;;-143.48;67.43;118439.88;5015003;28;20021;-74
2023/06/04 04:06:15;;;;;;;3.35;2.00;;;;;;;-143.48;67.71;118439.88;5032740;28;20065;-75
2023/06/04 04:08:42;;;;;;;3.08;1.80;;;;;;;-143.48;67.78;118439.88;5032635;28;20025;-75
2023/06/04 04:11:12;;;;;;;4.07;2.00;;;;;;;-143.48;68.21;118439.88;5014904;28;20040;-75
2023/06/04 04:13:37;;;;;;;4.65;2.22;;;;;;;-143.48;68.45;118439.88;5014973;28;20025;-75
2023/06/04 04:16:03;;;;;;;5.40;2.28;;;;;;;-143.48;68.33;118439.88;5014849;28;20083;-75
2023/06/04 04:18:33;;;;;;;5.07;2.30;;;;;;;-143.48;68.49;118439.88;5032522;28;20022;-75
2023/06/04 04:20:58;;;;;;;4.82;2.15;;;;;;;-143.48;69.27;118439.88;5014757;28;20025;-75
2023/06/04 04:23:23;;;;;;;5.65;2.25;;;;;;;-143.48;69.35;118439.88;5014816;28;20496;-75
2023/06/04 04:25:49;;;;;;;4.35;2.17;;;;;;;-143.48;69.09;118439.88;5032535;28;20068;-75
2023/06/04 04:28:17;;;;;;;3.40;2.13;;;;;;;-143.48;69.66;118439.88;5032439;28;20017;-75
2023/06/04 04:30:44;;;;;;;5.55;2.47;;;;;;;-143.48;69.69;118439.88;5032467;28;20053;-74
2023/06/04 04:33:10;;;;;;;4.68;2.42;;;;;;;-143.48;70.29;118439.88;5014664;28;20088;-74
2023/06/04 04:35:36;;;;;;;6.53;2.33;;;;;;;-143.48;69.67;118439.88;5014709;28;20033;-74
2023/06/04 04:38:03;;;;;;;6.25;2.35;;;;;;;-143.48;69.91;118439.88;5035134;28;20376;-74
2023/06/04 04:40:29;;;;;;;5.57;2.45;;;;;;;-143.48;69.75;118439.88;5018223;28;20030;-74
2023/06/04 04:42:54;;;;;;;7.07;2.60;;;;;;;-143.48;69.14;118439.88;5018009;28;20032;-74
2023/06/04 04:45:20;;;;;;;6.72;2.50;;;;;;;-143.48;68.34;118439.88;5035804;28;20377;-74
2023/06/04 04:47:46;;;;;;;5.72;2.70;;;;;;;-143.48;69.65;118439.88;5035688;28;20362;-74
2023/06/04 04:50:12;;;;;;;7.57;2.50;;;;;;;-143.48;68.57;118439.88;5035642;28;20109;-74
2023/06/04 04:52:37;;;;;;;7.38;2.45;;;;;;;-143.48;69.09;118439.88;5018038;28;20033;-75
2023/06/04 04:55:02;;;;;;;6.32;2.40;;;;;;;-143.48;68.51;118439.88;5035571;28;20152;-74
2023/06/04 04:57:28;;;;;;;8.27;2.60;;;;;;;-143.48;68.85;118439.88;5017498;28;20080;-75
2023/06/04 04:59:53;;;;;;;5.28;2.60;;;;;;;-143.48;69.26;118439.88;5035375;28;20059;-75
2023/06/04 05:02:19;;;;;;;6.28;2.60;;;;;;;-143.48;68.08;118439.88;5035601;28;20030;-74
2023/06/04 05:04:44;;;;;;;5.25;2.47;;;;;;;-143.48;68.83;118439.88;5017719;28;20022;-75
2023/06/04 05:07:09;;;;;;;5.38;2.47;;;;;;;-143.48;68.23;118439.88;5035286;28;20108;-75
2023/06/04 05:09:35;;;;;;;7.15;2.67;;;;;;;-143.48;68.53;118439.88;5035357;28;20469;-74
2023/06/04 05:12:01;;;;;;;7.90;2.90;;;;;;;-143.48;68.11;118439.88;5035278;28;20021;-75
2023/06/04 05:14:28;;;;;;;10.00;2.80;;;;;;;-143.48;68.27;118439.88;5017385;28;20029;-74
2023/06/04 05:16:56;;;;;;;5.07;2.38;;;;;;;-143.48;67.97;118439.88;5017457;28;20029;-74
2023/06/04 05:19:22;;;;;;;7.57;2.53;;;;;;;-143.48;67.71;118439.88;5017410;28;20382;-75
2023/06/04 05:21:48;;;;;;;4.40;2.38;;;;;;;-143.48;67.83;118439.88;5017326;28;20030;-75
2023/06/04 05:24:14;;;;;;;5.85;2.38;;;;;;;-143.48;67.58;118439.88;5035032;28;20087;-74
2023/06/04 05:26:39;;;;;;;9.40;2.67;;;;;;;-143.48;66.83;118439.88;5035061;28;20021;-75
2023/06/04 05:29:05;;;;;;;8.20;2.45;;;;;;;-143.48;66.48;118439.88;5017219;28;20029;-75
2023/06/04 05:31:33;;;;;;;6.20;2.58;;;;;;;-143.48;66.67;118439.88;5034973;28;20021;-75
2023/06/04 05:34:04;;;;;;;8.27;2.67;;;;;;;-143.48;65.93;118439.88;5035491;28;20499;-75
2023/06/04 05:36:30;;;;;;;8.48;2.65;;;;;;;-143.48;66.75;118439.88;5017635;28;20029;-75
2023/06/04 05:38:57;;;;;;;8.95;2.70;;;;;;;-143.48;66.25;118439.88;5017467;28;20020;-74
2023/06/04 05:41:31;;;;;;;12.23;2.97;;;;;;;-143.48;64.72;118439.88;5035270;28;20109;-75
2023/06/04 05:43:56;;;;;;;9.70;2.45;;;;;;;-143.48;55.89;118439.88;5017252;28;20100;-76
2023/06/04 05:46:22;;;;;;;8.65;2.60;;;;;;;-143.48;48.52;118439.88;5034909;28;20018;-76
2023/06/04 05:48:47;;;;;;;7.15;2.40;;;;;;;-143.48;45.48;118439.88;5016215;28;20400;-74
2023/06/04 05:51:13;;;;;;;6.57;2.33;;;;;;;-143.48;44.87;118439.88;5016832;28;20054;-74
2023/06/04 05:53:38;;;;;;;7.80;2.40;;;;;;;-143.48;43.13;118439.88;5016931;28;20029;-75
2023/06/04 05:56:04;;;;;;;7.72;2.70;;;;;;;-143.48;43.32;118439.88;5034395;28;20041;-75
2023/06/04 05:58:29;;;;;;;8.05;2.40;;;;;;;-143.48;41.37;118439.88;5016756;28;20021;-75
2023/06/04 06:00:54;;;;;;;5.68;2.30;;;;;;;-143.48;42.42;118439.88;5034412;28;20477;-75
2023/06/04 06:03:20;;;;;;;7.45;2.35;;;;;;;-143.48;43.45;118439.88;5016639;28;20025;-75
2023/06/04 06:05:45;;;;;;;5.40;2.30;;;;;;;-143.48;41.29;118439.88;5016532;28;20025;-75
2023/06/04 06:08:10;;;;;;;7.05;2.30;;;;;;;-143.48;40.57;118439.88;5034120;28;20040;-75
2023/06/04 06:10:36;;;;;;;5.38;2.20;;;;;;;-143.48;41.20;118439.88;5016402;28;20457;-75
2023/06/04 06:13:02;;;;;;;7.63;2.20;;;;;;;-143.48;40.04;118439.88;5016345;28;20420;-75
2023/06/04 06:15:28;;;;;;;7.20;2.17;;;;;;;-143.48;39.72;118439.88;5034123;28;20492;-75
2023/06/04 06:17:54;;;;;;;6.72;2.10;;;;;;;-143.48;39.98;118439.88;5034050;28;20500;-75
2023/06/04 06:20:20;;;;;;;7.18;2.17;;;;;;;-143.48;38.69;118439.88;5034062;28;20025;-75
2023/06/04 06:22:45;;;;;;;7.20;2.30;;;;;;;-143.48;39.02;118439.88;5016287;28;20113;-75
2023/06/04 06:25:15;;;;;;;9.00;2.55;;;;;;;-143.48;40.59;118439.88;5016189;28;20056;-75
2023/06/04 06:27:41;;;;;;;10.07;2.50;;;;;;;-143.48;40.10;118439.88;5033916;28;20048;-75
2023/06/04 06:30:08;;;;;;;4.38;2.17;;;;;;;-143.48;39.37;118439.88;5016385;28;20254;-75
2023/06/04 06:32:33;;;;;;;7.78;2.05;;;;;;;-143.48;39.07;118439.88;5016313;28;20473;-75
2023/06/04 06:34:58;;;;;;;6.28;2.00;;;;;;;-143.48;38.35;118439.88;5033651;28;20071;-75
2023/06/04 06:37:23;;;;;;;5.30;2.00;;;;;;;-143.48;38.87;118439.88;5016110;28;20032;-75
2023/06/04 06:39:49;;;;;;;6.80;2.20;;;;;;;-143.48;38.08;118439.88;5015935;28;20025;-75
2023/06/04 06:42:16;;;;;;;4.38;2.00;;;;;;;-143.48;37.80;118439.88;5015955;28;20079;-74
2023/06/04 06:44:43;;;;;;;6.20;1.92;;;;;;;-143.48;37.23;118439.88;5016292;28;20481;-75
2023/06/04 06:47:09;;;;;;;5.97;2.00;;;;;;;-143.48;39.52;118439.88;5015821;28;20028;-74
2023/06/04 06:49:34;;;;;;;10.05;1.95;;;;;;;-143.48;40.02;118439.88;5015826;28;20435;-75
2023/06/04 06:51:59;;;;;;;4.97;1.88;;;;;;;-143.48;40.58;118439.88;5033169;28;20037;-75
2023/06/04 06:54:25;;;;;;;8.15;2.22;;;;;;;-143.48;39.29;118439.88;5033534;28;20026;-76
2023/06/04 06:56:50;;;;;;;4.93;1.80;;;;;;;-143.48;40.26;118439.88;5033406;28;20025;-76
2023/06/04 06:59:15;;;;;;;6.72;2.22;;;;;;;-143.48;39.62;118439.88;5033508;28;20540;-76
2023/06/04 07:01:41;;;;;;;8.98;2.03;;;;;;;-143.48;39.95;118439.88;5014677;28;20049;-76
2023/06/04 07:04:06;;;;;;;5.05;1.88;;;;;;;-143.48;40.46;118439.88;5033290;28;20033;-76
2023/06/04 07:06:32;;;;;;;4.65;1.90;;;;;;;-143.48;39.65;118439.88;5015486;28;20033;-76
2023/06/04 07:08:58;;;;;;;5.43;2.10;;;;;;;-143.48;39.36;118439.88;5015614;28;20112;-76
2023/06/04 07:11:23;;;;;;;4.93;1.85;;;;;;;-143.48;39.03;118439.88;5015576;28;20067;-76
2023/06/04 07:13:49;;;;;;;5.45;1.73;;;;;;;-143.48;38.31;118439.88;5015479;28;20023;-76
2023/06/04 07:16:14;;;;;;;5.43;2.03;;;;;;;-143.48;38.65;118439.88;5015635;28;20033;-76
2023/06/04 07:18:39;;;;;;;6.80;2.15;;;;;;;-143.48;38.63;118439.88;5015414;28;20473;-76
2023/06/04 07:21:05;;;;;;;3.33;1.73;;;;;;;-143.48;39.25;118439.88;5032990;28;20465;-76
2023/06/04 07:23:30;;;;;;;5.20;1.80;;;;;;;-143.48;38.26;118439.88;5015358;28;20543;-76
2023/06/04 07:25:56;;;;;;;4.70;1.90;;;;;;;-143.48;38.33;118439.88;5015215;28;20033;-77
2023/06/04 07:28:22;;;;;;;5.28;2.08;;;;;;;-143.48;39.66;118439.88;5033032;28;20026;-76
2023/06/04 07:30:48;;;;;;;5.72;2.00;;;;;;;-143.48;38.70;118439.88;5015280;28;20029;-76
2023/06/04 07:33:13;;;;;;;4.03;1.67;;;;;;;-143.48;37.31;118439.88;5015428;28;20024;-76
2023/06/04 07:35:38;;;;;;;7.43;2.25;;;;;;;-143.48;38.85;118439.88;5015292;28;20025;-76
2023/06/04 07:38:04;;;;;;;4.40;2.05;;;;;;;-143.48;37.55;118439.88;5015278;28;20397;-76
2023/06/04 07:40:30;;;;;;;5.80;1.90;;;;;;;-143.48;37.35;118439.88;5015086;28;20475;-76
2023/06/04 07:42:55;;;;;;;5.53;2.08;;;;;;;-143.48;38.42;118439.88;5015109;28;20052;-76
2023/06/04 07:45:20;;;;;;;4.72;1.92;;;;;;;-143.48;37.86;118439.88;5032800;28;20026;-75
2023/06/04 07:47:46;;;;;;;3.70;1.65;;;;;;;-143.48;37.14;118439.88;5015019;28;20064;-76
2023/06/04 07:50:12;;;;;;;5.28;1.75;;;;;;;-143.48;39.20;118439.88;5033116;28;20469;-75
2023/06/04 07:52:37;;;;;;;8.30;2.08;;;;;;;-143.48;38.95;118439.88;5032736;28;20029;-75
2023/06/04 07:55:03;;;;;;;6.35;1.90;;;;;;;-143.48;38.76;118439.88;5032793;28;20022;-76
2023/06/04 07:57:29;;;;;;;4.30;1.90;;;;;;;-143.48;37.59;118439.88;5014979;28;20052;-75
2023/06/04 07:59:54;;;;;;;5.53;1.92;;;;;;;-143.48;36.78;118439.88;5014972;28;20527;-75
2023/06/04 08:02:20;;;;;;;6.22;2.00;;;;;;;-143.48;36.57;118439.88;5032639;28;20046;-76
2023/06/04 08:04:46;;;;;;;7.07;2.00;;;;;;;-143.48;35.93;118439.88;5015118;28;20034;-76
2023/06/04 08:07:11;;;;;;;5.70;2.00;;;;;;;-143.48;36.07;118439.88;5015119;28;20022;-75
2023/06/04 08:09:37;;;;;;;5.82;1.80;;;;;;;-143.48;36.15;118439.88;5014929;28;20028;-76
2023/06/04 08:12:02;;;;;;;9.10;2.17;;;;;;;-143.48;36.52;118439.88;5016168;28;20052;-76
2023/06/04 08:14:28;;;;;;;5.80;1.90;;;;;;;-143.48;36.15;118439.88;5018495;28;20084;-76
2023/06/04 08:16:53;;;;;;;4.70;1.88;;;;;;;-143.48;36.75;118439.88;5036264;28;20391;-75
2023/06/04 08:19:19;;;;;;;7.68;2.05;;;;;;;-143.48;37.60;118439.88;5036119;28;20031;-75
2023/06/04 08:21:45;;;;;;;4.80;2.03;;;;;;;-143.48;36.73;118439.88;5036154;28;20018;-76
2023/06/04 08:24:11;;;;;;;5.43;2.15;;;;;;;-143.48;35.33;118439.88;5018305;28;20396;-76
2023/06/04 08:26:36;;;;;;;4.68;1.80;;;;;;;-143.48;36.68;118439.88;5035944;28;20029;-76
2023/06/04 08:29:05;;;;;;;4.13;1.83;;;;;;;-143.48;36.40;118439.88;5018211;28;20045;-75
2023/06/04 08:31:31;;;;;;;4.93;1.70;;;;;;;-143.48;35.86;118439.88;5018325;28;20033;-75
2023/06/04 08:33:56;;;;;;;4.57;1.58;;;;;;;-143.48;36.29;118439.88;5035947;28;20025;-75
2023/06/04 08:36:21;;;;;;;3.60;1.60;;;;;;;-143.48;35.85;118439.88;5018125;28;20037;-76
2023/06/04 08:38:50;;;;;;;5.03;1.70;;;;;;;-143.48;35.17;118439.88;5035984;28;20021;-75
2023/06/04 08:41:26;;;;;;;6.70;1.50;;;;;;;-143.48;34.60;118439.88;5018077;28;20118;-76
2023/06/04 08:43:55;;;;;;;3.33;1.63;;;;;;;-143.48;35.77;118439.88;5035998;28;20060;-76
2023/06/04 08:46:21;;;;;;;6.88;1.70;;;;;;;-143.48;35.22;118439.88;5017966;28;20037;-76
2023/06/04 08:48:47;;;;;;;5.88;1.75;;;;;;;-143.48;34.71;118439.88;5035785;28;20025;-75
2023/06/04 08:51:13;;;;;;;4.53;1.70;;;;;;;-143.48;34.45;118439.88;5035680;28;20084;-76
2023/06/04 08:53:39;;;;;;;5.38;1.90;;;;;;;-143.48;33.98;118439.88;5017976;28;20481;-76
2023/06/04 08:56:05;;;;;;;4.85;1.88;;;;;;;-143.48;34.70;118439.88;5017710;28;20032;-76
2023/06/04 08:58:35;;;;;;;7.63;2.00;;;;;;;-143.48;34.33;118439.88;5017445;28;20126;-75
2023/06/04 09:01:01;;;;;;;6.15;1.88;;;;;;;-143.48;33.74;118439.88;5035237;28;20057;-76
2023/06/04 09:03:28;;;;;;;4.05;1.70;;;;;;;-143.48;33.40;118439.88;5035306;28;20388;-76
2023/06/04 09:05:55;;;;;;;22.98;2.05;;;;;;;-143.48;33.81;118439.88;5017425;28;20018;-76
2023/06/04 09:08:21;;;;;;;6.30;1.92;;;;;;;-143.48;34.56;118439.88;5017517;28;20501;-76
2023/06/04 09:10:51;;;;;;;6.60;1.83;;;;;;;-143.48;33.57;118439.88;5035220;28;20029;-76
2023/06/04 09:13:18;;;;;;;3.72;1.50;;;;;;;-143.48;32.92;118439.88;5035326;28;20028;-76
2023/06/04 09:15:44;;;;;;;5.60;1.45;;;;;;;-143.48;33.51;118439.88;5017372;28;20072;-77
2023/06/04 09:18:11;;;;;;;6.88;1.80;;;;;;;-143.48;32.54;118439.88;5014984;28;20473;-76
2023/06/04 09:20:36;;;;;;;5.72;1.80;;;;;;;-143.48;34.77;118439.88;5035173;28;20053;-76
2023/06/04 09:23:12;;;;;;;2.92;1.42;;;;;;;-143.48;33.96;118439.88;5034366;28;20073;-76
2023/06/04 09:25:42;;;;;;;6.60;1.70;;;;;;;-143.48;33.84;118439.88;5017486;28;20400;-76
2023/06/04 09:28:07;;;;;;;6.97;1.88;;;;;;;-143.48;32.11;118439.88;5034213;28;20102;-76
2023/06/04 09:30:33;;;;;;;2.65;1.40;;;;;;;-143.48;33.13;118439.88;5035145;28;20108;-75
2023/06/04 09:33:08;;;;;;;5.10;1.38;;;;;;;-143.48;32.70;118439.88;5033834;28;20024;-77
2023/06/04 09:35:33;;;;;;;9.05;2.08;;;;;;;-143.48;32.78;118439.88;5015823;28;20099;-75
2023/06/04 09:37:59;;;;;;;4.60;1.80;;;;;;;-143.48;34.47;118439.88;5015686;28;20485;-76
2023/06/04 09:40:37;;;;;;;4.20;1.70;;;;;;;-143.48;34.70;118439.88;5015772;28;20021;-76
2023/06/04 09:43:03;;;;;;;8.93;1.60;;;;;;;-143.48;33.37;118439.88;5015271;28;20310;-76
2023/06/04 09:45:32;;;;;;;7.47;1.90;;;;;;;-143.48;33.28;118439.88;5032784;28;20388;-76
2023/06/04 09:47:59;;;;;;;4.40;1.77;;;;;;;-143.48;31.95;118439.88;5016275;28;20504;-75
2023/06/04 09:50:26;;;;;;;4.15;1.60;;;;;;;-143.48;32.85;118439.88;5016457;28;20497;-76
2023/06/04 09:52:52;;;;;;;5.43;1.60;;;;;;;-143.48;32.86;118439.88;5015059;28;20021;-76
2023/06/04 09:55:19;;;;;;;6.15;1.83;;;;;;;-143.48;32.16;118439.88;5014971;28;20366;-76
2023/06/04 09:57:49;;;;;;;4.40;1.55;;;;;;;-143.48;32.52;118439.88;5032776;28;20052;-76
2023/06/04 10:00:22;;;;;;;4.38;1.55;;;;;;;-143.48;32.29;118439.88;5014888;28;20036;-76
2023/06/04 10:02:49;;;;;;;7.57;2.22;;;;;;;-143.48;32.53;118439.88;5015055;28;20032;-76
2023/06/04 10:05:15;;;;;;;4.65;1.50;;;;;;;-143.48;32.73;118439.88;5015257;28;20049;-76
2023/06/04 10:07:45;;;;;;;5.70;1.80;;;;;;;-143.48;32.02;118439.88;5016505;28;20041;-76
2023/06/04 10:10:18;;;;;;;6.65;1.83;;;;;;;-143.48;33.65;118439.88;5016473;28;20105;-75
2023/06/04 10:12:47;;;;;;;4.43;1.48;;;;;;;-143.48;32.68;118439.88;5016338;28;20076;-75
2023/06/04 10:15:13;;;;;;;7.53;1.65;;;;;;;-143.48;31.33;118439.88;5016275;28;20045;-75
2023/06/04 10:17:39;;;;;;;6.50;1.67;;;;;;;-143.48;32.10;118439.88;5034213;28;20025;-75
2023/06/04 10:20:08;;;;;;;3.35;1.73;;;;;;;-143.48;32.38;118439.88;5016830;28;20366;-75
2023/06/04 10:22:35;;;;;;;6.30;1.50;;;;;;;-143.48;31.93;118439.88;5016389;28;20484;-75
2023/06/04 10:25:01;;;;;;;5.95;1.50;;;;;;;-143.48;31.87;118439.88;5015721;28;20472;-76
2023/06/04 10:27:27;;;;;;;6.30;1.73;;;;;;;-143.48;32.52;118439.88;5015376;28;20017;-75
2023/06/04 10:29:53;;;;;;;3.50;1.75;;;;;;;-143.48;32.21;118439.88;5014146;28;20534;-75
2023/06/04 10:32:19;;;;;;;5.70;1.70;;;;;;;-143.48;31.40;118439.88;5032037;28;20061;-75
2023/06/04 10:34:46;;;;;;;5.97;1.38;;;;;;;-143.48;32.09;118439.88;5031811;28;20074;-76
2023/06/04 10:37:21;;;;;;;5.65;1.73;;;;;;;-143.48;32.45;118439.88;5032275;28;20036;-75
2023/06/04 10:39:57;;;;;;;2.67;1.48;;;;;;;-143.48;32.49;118439.88;5014239;28;20025;-78
2023/06/04 10:42:24;;;;;;;6.32;1.50;;;;;;;-143.48;32.06;118439.88;5014657;28;20432;-78
2023/06/04 10:44:54;;;;;;;4.32;1.48;;;;;;;-143.48;32.91;118439.88;5015923;28;20572;-75
2023/06/04 10:47:24;;;;;;;5.82;1.50;;;;;;;-143.48;32.12;118439.88;5015950;28;20112;-75
2023/06/04 10:49:51;;;;;;;6.72;1.65;;;;;;;-143.48;32.53;118439.88;5033487;28;20076;-75
2023/06/04 10:52:17;;;;;;;3.50;1.63;;;;;;;-143.48;33.32;118439.88;5015835;28;20577;-75
2023/06/04 10:54:44;;;;;;;6.50;1.70;;;;;;;-143.48;34.04;118439.88;5015714;28;20025;-75
2023/06/04 10:57:15;;;;;;;3.80;1.60;;;;;;;-143.48;33.68;118439.88;5015555;28;20017;-75
2023/06/04 10:59:41;;;;;;;4.85;1.98;;;;;;;-143.48;33.67;118439.88;5015709;28;20071;-76
2023/06/04 11:02:07;;;;;;;5.18;2.08;;;;;;;-143.48;33.70;118439.88;5033228;28;20049;-76
2023/06/04 11:04:32;;;;;;;6.70;2.17;;;;;;;-143.48;34.78;118439.88;4999307;28;20025;-77
2023/06/04 11:07:10;;;;;;;6.95;1.90;;;;;;;-143.48;35.16;118439.88;5015806;28;20032;-76